createdAt,value
2022-11-07T00:01:58.765Z,20.58
2022-11-07T00:04:28.642Z,14.65
2022-11-07T00:09:21.964Z,2.60
2022-11-07T00:11:48.578Z,4.10
2022-11-07T00:14:16.963Z,3.53
2022-11-07T00:16:44.734Z,5.28
2022-11-07T00:19:12.506Z,4.53
2022-11-07T00:21:39.551Z,3.75
2022-11-07T00:24:07.570Z,11.20
2022-11-07T00:26:36.236Z,12.60
2022-11-07T00:29:04.066Z,5.80
2022-11-07T00:31:30.852Z,4.95
2022-11-07T00:33:58.396Z,5.72
2022-11-07T00:36:27.827Z,6.65
2022-11-07T00:38:55.289Z,8.70
2022-11-07T00:41:22.873Z,7.15
2022-11-07T00:43:49.905Z,3.88
2022-11-07T00:46:17.213Z,3.92
2022-11-07T00:48:43.814Z,6.43
2022-11-07T00:51:21.814Z,3.88
2022-11-07T00:53:48.888Z,3.95
2022-11-07T00:56:18.335Z,7.70
2022-11-07T00:58:45.079Z,3.42
2022-11-07T01:01:21.030Z,3.75
2022-11-07T01:04:07.018Z,2.13
2022-11-07T01:06:36.554Z,3.15
2022-11-07T01:09:05.418Z,5.00
2022-11-07T01:11:32.036Z,2.33
2022-11-07T01:14:00.838Z,2.90
2022-11-07T01:16:28.481Z,3.40
2022-11-07T01:18:55.349Z,3.95
2022-11-07T01:21:22.362Z,4.90
2022-11-07T01:23:49.414Z,2.22
2022-11-07T01:26:16.803Z,3.03
2022-11-07T01:28:43.331Z,5.00
2022-11-07T01:31:12.158Z,1.63
2022-11-07T01:33:38.773Z,4.63
2022-11-07T01:36:11.097Z,3.17
2022-11-07T01:38:39.541Z,3.60
2022-11-07T01:41:22.302Z,2.45
2022-11-07T01:43:57.972Z,3.97
2022-11-07T01:46:30.860Z,1.23
2022-11-07T01:49:03.557Z,1.42
2022-11-07T01:51:37.540Z,2.45
2022-11-07T01:54:05.526Z,4.53
2022-11-07T01:56:35.570Z,3.70
2022-11-07T01:59:03.248Z,2.97
2022-11-07T02:01:30.017Z,1.38
2022-11-07T02:03:58.629Z,1.13
2022-11-07T02:06:35.661Z,3.03
2022-11-07T02:09:02.358Z,1.45
2022-11-07T02:11:29.505Z,3.75
2022-11-07T02:13:56.019Z,1.20
2022-11-07T02:16:22.789Z,6.22
2022-11-07T02:18:49.532Z,2.60
2022-11-07T02:21:46.713Z,3.42
2022-11-07T02:24:33.188Z,3.05
2022-11-07T02:27:06.409Z,1.77
2022-11-07T02:29:36.854Z,2.92
2022-11-07T02:32:05.998Z,2.60
2022-11-07T02:34:32.636Z,3.08
2022-11-07T02:37:02.056Z,4.28
2022-11-07T02:39:29.175Z,2.35
2022-11-07T02:41:59.193Z,1.50
2022-11-07T02:44:29.505Z,2.92
2022-11-07T02:46:56.662Z,3.83
2022-11-07T02:49:23.196Z,5.28
2022-11-07T02:51:49.696Z,4.85
2022-11-07T02:54:16.228Z,2.83
2022-11-07T02:56:42.721Z,4.30
2022-11-07T02:59:09.297Z,2.15
2022-11-07T03:01:35.913Z,6.57
2022-11-07T03:04:02.665Z,2.75
2022-11-07T03:06:29.189Z,2.15
2022-11-07T03:08:55.814Z,2.88
2022-11-07T03:11:22.409Z,3.92
2022-11-07T03:13:50.469Z,0.88
2022-11-07T03:16:18.866Z,2.47
2022-11-07T03:18:45.462Z,3.10
2022-11-07T03:21:12.113Z,4.88
2022-11-07T03:23:38.670Z,2.40
2022-11-07T03:26:05.621Z,1.63
2022-11-07T03:28:32.836Z,4.90
2022-11-07T03:31:00.983Z,1.73
2022-11-07T03:33:29.245Z,4.20
2022-11-07T03:35:55.898Z,5.72
2022-11-07T03:38:22.876Z,3.92
2022-11-07T03:40:49.532Z,1.90
2022-11-07T03:43:16.639Z,1.30
2022-11-07T03:45:43.468Z,3.45
2022-11-07T03:48:09.931Z,1.67
2022-11-07T03:50:36.571Z,3.08
2022-11-07T03:53:03.074Z,2.88
2022-11-07T03:55:29.662Z,5.18
2022-11-07T03:57:56.159Z,3.60
2022-11-07T04:00:22.966Z,4.35
2022-11-07T04:02:49.645Z,5.00
2022-11-07T04:05:16.344Z,4.78
2022-11-07T04:07:43.115Z,2.80
2022-11-07T04:10:09.754Z,3.05
2022-11-07T04:12:54.822Z,4.07
2022-11-07T04:15:39.984Z,8.65
2022-11-07T04:18:06.665Z,4.93
2022-11-07T04:20:33.426Z,6.97
2022-11-07T04:23:02.861Z,3.55
2022-11-07T04:25:48.131Z,1.65
2022-11-07T04:28:17.706Z,2.05
2022-11-07T04:30:44.250Z,2.08
2022-11-07T04:33:10.823Z,5.22
2022-11-07T04:35:37.382Z,4.75
2022-11-07T04:38:04.067Z,3.20
2022-11-07T04:40:30.683Z,1.95
2022-11-07T04:42:57.651Z,2.00
2022-11-07T04:45:24.309Z,7.07
2022-11-07T04:47:51.019Z,4.97
2022-11-07T04:50:19.545Z,9.57
2022-11-07T04:52:47.430Z,5.18
2022-11-07T04:55:21.275Z,2.42
2022-11-07T04:57:48.313Z,5.25
2022-11-07T05:00:16.126Z,6.50
2022-11-07T05:02:42.821Z,3.55
2022-11-07T05:05:10.345Z,4.57
2022-11-07T05:07:37.218Z,5.63
2022-11-07T05:10:08.371Z,9.48
2022-11-07T05:12:38.414Z,6.57
2022-11-07T05:15:05.445Z,2.30
2022-11-07T05:17:32.012Z,7.45
2022-11-07T05:19:58.550Z,3.65
2022-11-07T05:22:43.583Z,7.10
2022-11-07T05:25:10.132Z,6.05
2022-11-07T05:27:36.857Z,5.53
2022-11-07T05:30:04.904Z,3.92
2022-11-07T05:32:33.687Z,6.95
2022-11-07T05:35:00.217Z,5.82
2022-11-07T05:37:29.482Z,5.40
2022-11-07T05:39:56.008Z,3.65
2022-11-07T05:42:22.604Z,3.55
2022-11-07T05:44:49.158Z,4.82
2022-11-07T05:47:15.977Z,11.45
2022-11-07T05:49:42.570Z,4.95
2022-11-07T05:52:09.096Z,3.22
2022-11-07T05:54:35.823Z,3.55
2022-11-07T05:57:02.323Z,2.45
2022-11-07T05:59:28.879Z,4.50
2022-11-07T06:01:55.570Z,4.22
2022-11-07T06:04:22.313Z,6.25
2022-11-07T06:06:48.857Z,19.27
2022-11-07T06:09:15.603Z,10.65
2022-11-07T06:11:42.163Z,5.97
2022-11-07T06:14:08.870Z,7.78
2022-11-07T06:16:35.704Z,7.88
2022-11-07T06:19:02.379Z,14.75
2022-11-07T06:21:29.411Z,6.13
2022-11-07T06:23:56.095Z,12.45
2022-11-07T06:26:22.717Z,8.65
2022-11-07T06:28:49.219Z,6.35
2022-11-07T06:31:16.452Z,8.93
2022-11-07T06:33:44.336Z,9.48
2022-11-07T06:36:12.519Z,7.47
2022-11-07T06:38:39.943Z,13.60
2022-11-07T06:41:08.525Z,3.60
2022-11-07T06:43:35.749Z,4.18
2022-11-07T06:46:05.382Z,8.15
2022-11-07T06:48:32.088Z,7.18
2022-11-07T06:51:00.579Z,7.72
2022-11-07T06:53:27.786Z,4.88
2022-11-07T06:55:55.045Z,6.85
2022-11-07T06:58:22.813Z,7.50
2022-11-07T07:00:49.448Z,12.90
2022-11-07T07:03:17.248Z,10.73
2022-11-07T07:05:44.054Z,9.73
2022-11-07T07:08:16.692Z,8.80
2022-11-07T07:10:45.132Z,11.77
2022-11-07T07:13:13.770Z,9.93
2022-11-07T07:15:50.785Z,7.50
2022-11-07T07:18:19.090Z,7.38
2022-11-07T07:20:46.652Z,11.80
2022-11-07T07:23:17.540Z,10.73
2022-11-07T07:25:44.526Z,10.50
2022-11-07T07:28:11.136Z,17.00
2022-11-07T07:30:38.096Z,12.82
2022-11-07T07:33:05.027Z,11.50
2022-11-07T07:35:31.782Z,12.13
2022-11-07T07:37:58.342Z,9.13
2022-11-07T07:40:24.866Z,17.98
2022-11-07T07:42:51.480Z,10.75
2022-11-07T07:45:18.176Z,14.93
2022-11-07T07:47:44.991Z,14.55
2022-11-07T07:50:13.167Z,12.80
2022-11-07T07:52:40.001Z,13.70
2022-11-07T07:55:13.510Z,11.73
2022-11-07T07:57:41.616Z,12.48
2022-11-07T08:00:09.503Z,6.72
2022-11-07T08:02:38.767Z,9.23
2022-11-07T08:05:05.917Z,5.20
2022-11-07T08:07:32.406Z,8.00
2022-11-07T08:10:02.023Z,10.32
2022-11-07T08:12:29.549Z,13.88
2022-11-07T08:14:56.263Z,34.58
2022-11-07T08:17:22.871Z,11.43
2022-11-07T08:19:49.498Z,8.55
2022-11-07T08:22:16.297Z,8.52
2022-11-07T08:24:43.249Z,11.02
2022-11-07T08:27:09.812Z,15.40
2022-11-07T08:29:36.514Z,7.57
2022-11-07T08:32:03.347Z,10.77
2022-11-07T08:34:32.678Z,5.85
2022-11-07T08:36:59.449Z,9.63
2022-11-07T08:39:26.052Z,10.75
2022-11-07T08:41:52.671Z,7.68
2022-11-07T08:44:19.347Z,6.40
2022-11-07T08:46:45.994Z,5.78
2022-11-07T08:49:12.651Z,13.02
2022-11-07T08:51:42.171Z,7.30
2022-11-07T08:54:08.925Z,6.10
2022-11-07T08:56:35.506Z,7.07
2022-11-07T08:59:02.051Z,6.55
2022-11-07T09:01:28.744Z,3.85
2022-11-07T09:03:58.308Z,5.85
2022-11-07T09:08:51.885Z,8.80
2022-11-07T09:11:22.056Z,8.05
2022-11-07T09:13:48.715Z,5.38
2022-11-07T09:16:18.416Z,11.80
2022-11-07T09:18:46.320Z,12.45
2022-11-07T09:21:17.651Z,8.43
2022-11-07T09:23:47.444Z,6.25
2022-11-07T09:26:14.138Z,5.82
2022-11-07T09:28:40.675Z,4.95
2022-11-07T09:31:07.466Z,5.43
2022-11-07T09:33:34.083Z,11.10
2022-11-07T09:36:05.284Z,9.25
2022-11-07T09:38:35.642Z,14.13
2022-11-07T09:41:34.724Z,7.60
2022-11-07T09:44:31.766Z,14.38
2022-11-07T09:47:07.050Z,9.13
2022-11-07T09:49:42.850Z,7.97
2022-11-07T09:52:42.128Z,13.18
2022-11-07T09:55:17.939Z,10.57
2022-11-07T09:57:45.787Z,10.50
2022-11-07T10:00:18.586Z,12.55
2022-11-07T10:02:48.981Z,10.48
2022-11-07T10:05:28.835Z,16.30
2022-11-07T10:08:07.213Z,13.00
2022-11-07T10:10:43.594Z,17.80
2022-11-07T10:13:48.875Z,10.07
2022-11-07T10:16:27.118Z,8.38
2022-11-07T10:19:02.519Z,5.45
2022-11-07T10:21:58.154Z,5.90
2022-11-07T10:24:39.613Z,5.55
2022-11-07T10:27:11.332Z,6.63
2022-11-07T10:29:51.028Z,4.35
2022-11-07T10:32:45.919Z,9.98
2022-11-07T10:35:12.566Z,12.95
2022-11-07T10:37:39.288Z,6.97
2022-11-07T10:40:17.067Z,12.60
2022-11-07T10:42:45.613Z,4.18
2022-11-07T10:45:15.079Z,9.57
2022-11-07T10:47:42.484Z,7.13
2022-11-07T10:50:21.679Z,8.82
2022-11-07T10:52:56.261Z,11.20
2022-11-07T10:55:24.490Z,7.32
2022-11-07T10:57:56.679Z,10.38
2022-11-07T11:00:25.094Z,26.38
2022-11-07T11:02:56.278Z,8.02
2022-11-07T11:05:27.762Z,10.93
2022-11-07T11:07:59.112Z,12.43
2022-11-07T11:10:27.746Z,15.68
2022-11-07T11:12:54.761Z,14.90
2022-11-07T11:15:31.210Z,12.95
2022-11-07T11:18:06.546Z,9.75
2022-11-07T11:20:37.908Z,7.22
2022-11-07T11:23:13.090Z,10.98
2022-11-07T11:25:45.867Z,9.05
2022-11-07T11:28:25.322Z,7.60
2022-11-07T11:30:57.131Z,13.48
2022-11-07T11:34:07.073Z,9.20
2022-11-07T11:36:38.639Z,10.02
2022-11-07T11:39:26.322Z,6.30
2022-11-07T11:41:59.205Z,7.38
2022-11-07T11:44:41.171Z,10.55
2022-11-07T11:47:34.333Z,9.13
2022-11-07T11:50:10.452Z,6.25
2022-11-07T11:52:37.358Z,3.97
2022-11-07T11:55:14.223Z,7.43
2022-11-07T11:57:58.461Z,10.80
2022-11-07T12:00:25.584Z,8.43
2022-11-07T12:03:17.523Z,10.30
2022-11-07T12:05:50.329Z,7.75
2022-11-07T12:08:27.158Z,11.57
2022-11-07T12:11:05.888Z,10.63
2022-11-07T12:13:57.037Z,8.52
2022-11-07T12:16:40.785Z,8.82
2022-11-07T12:19:22.638Z,6.53
2022-11-07T12:21:57.459Z,27.02
2022-11-07T12:24:39.573Z,8.95
2022-11-07T12:27:12.078Z,7.60
2022-11-07T12:29:57.562Z,183.82
2022-11-07T12:32:33.394Z,11.48
2022-11-07T12:35:15.336Z,139.48
2022-11-07T12:38:20.214Z,95.05
2022-11-07T12:41:03.658Z,204.95
2022-11-07T12:43:54.673Z,345.83
2022-11-07T12:46:44.336Z,154.55
2022-11-07T12:52:16.043Z,107.80
2022-11-07T12:54:48.405Z,73.72
2022-11-07T12:57:21.856Z,7.55
2022-11-07T13:00:07.203Z,17.55
2022-11-07T13:02:57.224Z,9.65
2022-11-07T13:05:36.204Z,15.48
2022-11-07T13:08:08.107Z,11.07
2022-11-07T13:11:03.558Z,10.57
2022-11-07T13:13:52.873Z,9.35
2022-11-07T13:16:22.601Z,9.25
2022-11-07T13:21:15.988Z,6.50
2022-11-07T13:23:45.336Z,13.50
2022-11-07T13:26:32.832Z,4.43
2022-11-07T13:29:00.858Z,13.30
2022-11-07T13:31:39.265Z,9.97
2022-11-07T13:35:04.564Z,7.32
2022-11-07T13:37:36.197Z,13.77
2022-11-07T13:40:16.216Z,16.80
2022-11-07T13:42:46.638Z,8.98
2022-11-07T13:45:27.645Z,14.80
2022-11-07T13:47:58.083Z,8.55
2022-11-07T13:50:37.452Z,5.97
2022-11-07T13:53:11.313Z,11.35
2022-11-07T13:55:46.121Z,7.88
2022-11-07T13:58:16.610Z,8.07
2022-11-07T14:00:46.151Z,14.38
2022-11-07T14:05:55.258Z,6.03
2022-11-07T14:08:50.081Z,9.57
2022-11-07T14:11:19.431Z,7.97
2022-11-07T14:13:51.631Z,9.13
2022-11-07T14:16:24.486Z,9.43
2022-11-07T14:18:59.380Z,11.15
2022-11-07T14:21:29.122Z,13.80
2022-11-07T14:26:24.041Z,22.83
2022-11-07T14:28:50.935Z,13.38
2022-11-07T14:31:19.062Z,8.00
2022-11-07T14:34:00.709Z,11.80
2022-11-07T14:36:28.533Z,9.93
2022-11-07T14:39:01.738Z,11.07
2022-11-07T14:41:29.319Z,9.13
2022-11-07T14:44:02.350Z,10.27
2022-11-07T14:46:29.462Z,8.93
2022-11-07T14:48:56.181Z,11.30
2022-11-07T14:51:25.718Z,16.67
2022-11-07T14:53:57.467Z,9.55
2022-11-07T14:56:30.163Z,7.70
2022-11-07T14:58:57.662Z,7.90
2022-11-07T15:01:34.578Z,10.30
2022-11-07T15:04:15.680Z,21.45
2022-11-07T15:06:44.592Z,12.60
2022-11-07T15:09:12.305Z,7.97
2022-11-07T15:11:57.796Z,7.70
2022-11-07T15:14:32.512Z,12.50
2022-11-07T15:17:00.735Z,9.90
2022-11-07T15:19:29.964Z,8.88
2022-11-07T15:22:03.101Z,13.02
2022-11-07T15:24:43.767Z,11.38
2022-11-07T15:27:13.407Z,10.07
2022-11-07T15:29:52.008Z,20.33
2022-11-07T15:32:20.378Z,22.80
2022-11-07T15:35:07.735Z,28.95
2022-11-07T15:37:37.525Z,14.57
2022-11-07T15:40:17.933Z,11.75
2022-11-07T15:42:47.452Z,22.30
2022-11-07T15:45:14.264Z,19.30
2022-11-07T15:47:42.774Z,13.02
2022-11-07T15:50:24.609Z,16.25
2022-11-07T15:52:52.628Z,10.85
2022-11-07T15:55:22.835Z,10.07
2022-11-07T15:57:51.649Z,9.70
2022-11-07T16:00:21.414Z,10.02
2022-11-07T16:05:15.542Z,13.95
2022-11-07T16:07:46.239Z,11.38
2022-11-07T16:10:20.768Z,12.52
2022-11-07T16:12:48.577Z,10.50
2022-11-07T16:15:17.252Z,12.05
2022-11-07T16:17:44.402Z,15.43
2022-11-07T16:20:33.394Z,9.88
2022-11-07T16:23:02.348Z,12.95
2022-11-07T16:25:30.541Z,11.73
2022-11-07T16:28:00.309Z,12.35
2022-11-07T16:32:54.312Z,14.80
2022-11-07T16:35:21.661Z,17.48
2022-11-07T16:37:48.561Z,19.75
2022-11-07T16:40:21.597Z,12.82
2022-11-07T16:42:48.302Z,15.85
2022-11-07T16:45:17.936Z,21.13
2022-11-07T16:47:46.405Z,14.43
2022-11-07T16:50:17.306Z,12.90
2022-11-07T16:52:43.903Z,15.85
2022-11-07T16:55:15.872Z,15.45
2022-11-07T16:57:43.466Z,12.85
2022-11-07T17:00:23.036Z,7.47
2022-11-07T17:02:50.505Z,11.77
2022-11-07T17:05:17.403Z,9.57
2022-11-07T17:07:44.014Z,11.32
2022-11-07T17:10:15.871Z,11.85
2022-11-07T17:12:42.751Z,12.85
2022-11-07T17:15:10.122Z,12.10
2022-11-07T17:17:36.788Z,19.80
2022-11-07T17:20:03.761Z,11.45
2022-11-07T17:22:33.207Z,10.27
2022-11-07T17:25:01.786Z,9.18
2022-11-07T17:27:28.787Z,12.07
2022-11-07T17:29:55.658Z,9.75
2022-11-07T17:32:22.452Z,11.77
2022-11-07T17:35:04.750Z,7.80
2022-11-07T17:37:36.121Z,13.48
2022-11-07T17:40:02.828Z,9.00
2022-11-07T17:42:33.753Z,10.85
2022-11-07T17:45:03.968Z,11.00
2022-11-07T17:47:34.196Z,7.57
2022-11-07T17:50:01.010Z,9.88
2022-11-07T17:52:27.680Z,13.35
2022-11-07T17:54:54.888Z,10.18
2022-11-07T17:57:23.803Z,11.70
2022-11-07T17:59:50.492Z,10.10
2022-11-07T18:02:19.466Z,17.05
2022-11-07T18:04:46.716Z,14.48
2022-11-07T18:07:13.695Z,9.35
2022-11-07T18:09:41.214Z,11.15
2022-11-07T18:12:09.042Z,10.60
2022-11-07T18:14:36.053Z,8.68
2022-11-07T18:17:02.866Z,7.07
2022-11-07T18:19:29.537Z,8.15
2022-11-07T18:21:56.244Z,12.57
2022-11-07T18:24:23.166Z,9.32
2022-11-07T18:26:51.236Z,13.55
2022-11-07T18:29:18.792Z,8.52
2022-11-07T18:31:47.352Z,13.35
2022-11-07T18:34:14.828Z,7.63
2022-11-07T18:36:43.929Z,10.13
2022-11-07T18:39:16.698Z,8.02
2022-11-07T18:41:46.418Z,9.80
2022-11-07T18:44:13.765Z,13.35
2022-11-07T18:46:41.119Z,6.97
2022-11-07T18:49:07.663Z,11.32
2022-11-07T18:51:34.801Z,17.23
2022-11-07T18:54:03.773Z,13.60
2022-11-07T18:56:30.749Z,15.63
2022-11-07T18:58:57.444Z,11.68
2022-11-07T19:01:28.165Z,14.57
2022-11-07T19:03:57.081Z,10.77
2022-11-07T19:06:25.442Z,14.13
2022-11-07T19:08:52.345Z,9.73
2022-11-07T19:11:29.472Z,10.02
2022-11-07T19:13:59.880Z,14.30
2022-11-07T19:16:26.597Z,12.20
2022-11-07T19:18:53.261Z,15.52
2022-11-07T19:21:21.323Z,16.60
2022-11-07T19:23:51.498Z,9.38
2022-11-07T19:26:21.540Z,16.13
2022-11-07T19:28:48.704Z,11.27
2022-11-07T19:31:15.624Z,15.40
2022-11-07T19:33:43.398Z,5.38
2022-11-07T19:36:16.468Z,14.13
2022-11-07T19:38:44.100Z,10.88
2022-11-07T19:41:11.732Z,9.32
2022-11-07T19:43:39.701Z,11.15
2022-11-07T19:46:12.242Z,9.98
2022-11-07T19:48:39.131Z,11.20
2022-11-07T19:51:18.291Z,7.70
2022-11-07T19:53:53.927Z,12.05
2022-11-07T19:56:21.039Z,9.63
2022-11-07T19:58:47.959Z,7.68
2022-11-07T20:01:25.980Z,8.10
2022-11-07T20:03:53.211Z,12.40
2022-11-07T20:06:33.395Z,6.05
2022-11-07T20:09:01.494Z,14.60
2022-11-07T20:11:28.696Z,8.82
2022-11-07T20:14:00.191Z,17.08
2022-11-07T20:16:29.754Z,10.95
2022-11-07T20:18:56.546Z,11.02
2022-11-07T20:21:23.929Z,13.32
2022-11-07T20:23:53.768Z,9.38
2022-11-07T20:26:22.450Z,17.60
2022-11-07T20:28:49.377Z,14.05
2022-11-07T20:31:22.296Z,15.38
2022-11-07T20:33:49.163Z,13.38
2022-11-07T20:36:16.781Z,11.82
2022-11-07T20:38:44.068Z,16.48
2022-11-07T20:41:12.272Z,15.20
2022-11-07T20:43:40.301Z,19.90
2022-11-07T20:46:10.675Z,18.23
2022-11-07T20:48:38.067Z,12.05
2022-11-07T20:51:31.716Z,14.82
2022-11-07T20:54:01.718Z,12.07
2022-11-07T20:56:29.056Z,13.70
2022-11-07T20:58:57.996Z,17.45
2022-11-07T21:01:29.663Z,9.93
2022-11-07T21:03:56.342Z,8.10
2022-11-07T21:06:23.389Z,11.48
2022-11-07T21:08:50.315Z,15.88
2022-11-07T21:11:17.346Z,14.75
2022-11-07T21:13:49.598Z,14.70
2022-11-07T21:16:20.049Z,13.93
2022-11-07T21:18:46.886Z,9.82
2022-11-07T21:21:18.717Z,16.38
2022-11-07T21:23:46.080Z,19.55
2022-11-07T21:26:19.765Z,9.30
2022-11-07T21:28:46.960Z,10.65
2022-11-07T21:31:18.104Z,14.15
2022-11-07T21:33:46.149Z,9.95
2022-11-07T21:36:15.989Z,15.73
2022-11-07T21:38:43.187Z,10.57
2022-11-07T21:41:10.612Z,9.95
2022-11-07T21:43:37.768Z,10.30
2022-11-07T21:46:09.698Z,12.02
2022-11-07T21:48:36.971Z,10.55
2022-11-07T21:51:28.395Z,16.70
2022-11-07T21:53:59.206Z,15.63
2022-11-07T21:56:28.237Z,12.57
2022-11-07T21:59:02.061Z,10.75
2022-11-07T22:01:29.929Z,24.35
2022-11-07T22:04:06.900Z,12.80
2022-11-07T22:06:36.724Z,13.27
2022-11-07T22:09:05.162Z,15.03
2022-11-07T22:11:31.903Z,11.38
2022-11-07T22:13:58.467Z,12.70
2022-11-07T22:16:25.297Z,12.98
2022-11-07T22:18:51.914Z,11.50
2022-11-07T22:21:23.057Z,7.07
2022-11-07T22:23:50.321Z,12.07
2022-11-07T22:26:28.377Z,8.63
2022-11-07T22:28:55.317Z,8.75
2022-11-07T22:31:28.433Z,11.82
2022-11-07T22:33:55.713Z,6.95
2022-11-07T22:36:23.154Z,9.80
2022-11-07T22:38:50.263Z,9.00
2022-11-07T22:41:19.794Z,11.85
2022-11-07T22:43:47.325Z,11.45
2022-11-07T22:46:16.979Z,15.18
2022-11-07T22:51:13.989Z,11.05
2022-11-07T22:53:41.273Z,15.63
2022-11-07T22:56:08.798Z,14.30
2022-11-07T22:58:37.421Z,7.30
2022-11-07T23:01:05.628Z,8.57
2022-11-07T23:03:32.838Z,13.80
2022-11-07T23:06:05.645Z,9.77
2022-11-07T23:08:35.807Z,9.02
2022-11-07T23:14:00.312Z,8.70
2022-11-07T23:16:38.735Z,15.48
2022-11-07T23:19:11.938Z,16.15
2022-11-07T23:21:38.854Z,16.45
2022-11-07T23:24:07.368Z,13.55
2022-11-07T23:26:35.372Z,32.13
2022-11-07T23:29:18.034Z,10.15
2022-11-07T23:31:50.416Z,24.73
2022-11-07T23:34:18.079Z,23.52
2022-11-07T23:36:45.193Z,17.17
2022-11-07T23:39:15.598Z,10.00
2022-11-07T23:41:42.199Z,13.55
2022-11-07T23:44:11.366Z,9.40
2022-11-07T23:46:57.073Z,13.45
2022-11-07T23:49:48.269Z,8.52
2022-11-07T23:52:15.639Z,12.50
2022-11-07T23:55:00.803Z,9.00
2022-11-07T23:57:27.430Z,9.13
